Time;durP1;ratioP1;P1;durP2;ratioP2;P2;SDS_P1;SDS_P2;PMS_P1;PMS_P2;Temp;Humidity;BMP_temperature;BMP_pressure;BME280_temperature;BME280_humidity;BME280_pressure;Samples;Min_cycle;Max_cycle;Signal;HPM_P1;HPM_P2
2023/03/30 00:01:10;;;;;;;12.70;6.30;;;5.40;59.40;;;;;;6065645;23;20635;-76
2023/03/30 00:03:39;;;;;;;12.33;6.80;;;5.40;59.40;;;;;;6065767;23;20163;-75
2023/03/30 00:06:09;;;;;;;11.10;6.27;;;5.40;59.50;;;;;;6065977;23;20178;-76
2023/03/30 00:08:39;;;;;;;11.77;5.63;;;5.40;59.60;;;;;;6065619;23;20178;-77
2023/03/30 00:11:09;;;;;;;8.90;5.30;;;5.40;59.60;;;;;;6063547;23;20620;-76
2023/03/30 00:13:38;;;;;;;11.70;5.90;;;5.40;59.60;;;;;;6065155;23;20198;-76
2023/03/30 00:16:10;;;;;;;13.00;6.43;;;5.40;59.50;;;;;;6064593;23;20174;-77
2023/03/30 00:18:39;;;;;;;10.90;5.73;;;5.30;59.50;;;;;;6062490;23;20190;-76
2023/03/30 00:21:08;;;;;;;9.30;5.40;;;5.30;59.60;;;;;;6063277;23;20254;-77
2023/03/30 00:23:38;;;;;;;11.10;6.30;;;5.30;59.60;;;;;;6062008;23;20257;-77
2023/03/30 00:26:07;;;;;;;11.20;5.77;;;5.30;59.70;;;;;;6064480;23;20163;-76
2023/03/30 00:28:36;;;;;;;11.80;6.70;;;5.30;59.70;;;;;;6065148;23;20185;-76
2023/03/30 00:31:04;;;;;;;11.77;5.97;;;5.30;59.80;;;;;;6063702;23;20222;-76
2023/03/30 00:33:33;;;;;;;13.47;7.00;;;5.20;59.90;;;;;;6065322;23;20187;-77
2023/03/30 00:36:13;;;;;;;16.17;6.83;;;5.20;59.90;;;;;;6065920;23;20178;-77
2023/03/30 00:38:44;;;;;;;12.83;6.80;;;5.20;60.50;;;;;;6064826;23;20750;-76
2023/03/30 00:41:13;;;;;;;12.83;5.97;;;5.20;60.40;;;;;;6061118;23;20288;-76
2023/03/30 00:43:58;;;;;;;13.70;7.07;;;5.20;60.70;;;;;;6065379;23;20631;-76
2023/03/30 00:46:27;;;;;;;13.63;6.23;;;5.10;60.60;;;;;;6066821;23;20226;-76
2023/03/30 00:48:58;;;;;;;10.17;6.27;;;5.10;60.50;;;;;;6066778;23;20178;-75
2023/03/30 00:51:28;;;;;;;13.50;6.57;;;5.10;60.40;;;;;;6065672;23;20163;-75
2023/03/30 00:54:06;;;;;;;11.77;5.77;;;5.10;60.80;;;;;;6065821;23;20174;-76
2023/03/30 00:56:34;;;;;;;9.37;4.83;;;5.00;60.70;;;;;;6063389;23;20162;-75
2023/03/30 00:59:04;;;;;;;10.67;5.00;;;5.00;60.40;;;;;;6064547;23;20170;-76
2023/03/30 01:01:37;;;;;;;9.30;5.43;;;5.00;60.10;;;;;;6063969;23;20178;-74
2023/03/30 01:04:08;;;;;;;8.77;5.10;;;5.00;59.70;;;;;;6065626;23;20254;-76
2023/03/30 01:06:39;;;;;;;9.20;5.10;;;5.00;59.50;;;;;;6062898;23;20167;-75
2023/03/30 01:09:10;;;;;;;10.97;5.40;;;5.00;59.50;;;;;;6065127;23;20162;-76
2023/03/30 01:11:39;;;;;;;9.07;4.70;;;5.00;59.40;;;;;;6064148;23;20163;-75
2023/03/30 01:14:10;;;;;;;15.07;5.27;;;5.00;59.30;;;;;;6063002;23;20182;-75
2023/03/30 01:16:44;;;;;;;11.97;5.73;;;5.00;59.30;;;;;;6065862;23;20202;-75
2023/03/30 01:19:58;;;;;;;8.93;5.10;;;5.00;59.40;;;;;;6061085;23;20184;-75
2023/03/30 01:22:49;;;;;;;10.77;5.10;;;5.00;59.50;;;;;;5975155;23;20179;-75
2023/03/30 01:25:47;;;;;;;9.93;5.40;;;5.00;59.40;;;;;;6064459;23;20633;-75
2023/03/30 01:28:30;;;;;;;11.87;5.37;;;5.00;59.30;;;;;;6023201;23;20177;-76
2023/03/30 01:31:18;;;;;;;9.37;5.50;;;5.00;59.40;;;;;;6063094;23;20189;-76
2023/03/30 01:34:12;;;;;;;9.00;5.37;;;5.00;59.20;;;;;;6063748;23;20167;-76
2023/03/30 01:37:11;;;;;;;10.70;4.87;;;4.90;59.10;;;;;;6064901;23;20218;-75
2023/03/30 01:39:49;;;;;;;9.23;4.83;;;4.90;59.10;;;;;;6063460;23;20557;-76
2023/03/30 01:42:22;;;;;;;11.47;5.30;;;4.90;59.10;;;;;;6062929;23;20169;-75
2023/03/30 01:44:57;;;;;;;10.80;5.70;;;4.90;59.10;;;;;;6062750;23;20169;-75
2023/03/30 01:47:33;;;;;;;8.07;4.83;;;5.00;59.30;;;;;;6064165;23;20656;-76
2023/03/30 01:50:07;;;;;;;9.07;5.10;;;5.00;59.40;;;;;;6060913;23;20166;-76
2023/03/30 01:52:41;;;;;;;10.83;5.80;;;5.00;59.40;;;;;;6063997;23;20165;-75
2023/03/30 01:55:17;;;;;;;12.17;5.87;;;4.90;60.00;;;;;;6061350;23;20499;-76
2023/03/30 01:57:51;;;;;;;10.40;5.97;;;4.90;59.40;;;;;;6059754;23;20580;-75
2023/03/30 02:00:23;;;;;;;10.97;6.60;;;4.90;59.50;;;;;;6063362;23;20185;-75
2023/03/30 02:02:55;;;;;;;12.23;6.23;;;4.90;59.60;;;;;;6064442;23;20215;-75
2023/03/30 02:05:26;;;;;;;10.33;6.10;;;4.90;59.60;;;;;;6062902;23;20170;-76
2023/03/30 02:08:00;;;;;;;11.63;5.23;;;4.90;59.50;;;;;;6064642;23;21080;-75
2023/03/30 02:10:33;;;;;;;10.47;5.33;;;4.80;59.40;;;;;;6065323;23;20217;-76
2023/03/30 02:13:02;;;;;;;12.80;5.30;;;4.80;59.40;;;;;;6063605;23;20402;-76
2023/03/30 02:15:35;;;;;;;14.30;5.70;;;4.80;60.10;;;;;;6061493;23;20238;-75
2023/03/30 02:18:04;;;;;;;10.63;5.43;;;4.80;59.40;;;;;;6062584;23;20162;-75
2023/03/30 02:20:34;;;;;;;11.27;4.90;;;4.80;59.30;;;;;;6062986;23;20198;-76
2023/03/30 02:23:04;;;;;;;8.97;4.70;;;4.80;59.30;;;;;;6064494;23;20187;-75
2023/03/30 02:25:37;;;;;;;10.60;5.60;;;4.80;59.40;;;;;;6062115;23;20671;-75
2023/03/30 02:28:06;;;;;;;7.83;5.10;;;4.70;59.40;;;;;;6063697;23;20604;-76
2023/03/30 02:30:38;;;;;;;9.50;4.93;;;4.70;59.30;;;;;;6064788;23;20175;-75
2023/03/30 02:33:10;;;;;;;11.87;5.53;;;4.80;59.30;;;;;;6065702;23;20229;-76
2023/03/30 02:35:54;;;;;;;7.53;4.40;;;4.70;59.30;;;;;;6066210;23;20500;-75
2023/03/30 02:38:47;;;;;;;8.87;4.93;;;4.80;59.50;;;;;;6065205;23;20170;-74
2023/03/30 02:41:31;;;;;;;9.73;4.37;;;4.70;59.40;;;;;;6061041;23;20246;-76
2023/03/30 02:44:10;;;;;;;8.17;4.70;;;4.70;59.50;;;;;;6067015;23;20230;-77
2023/03/30 02:46:58;;;;;;;10.30;4.70;;;4.70;59.50;;;;;;6066097;23;20162;-75
2023/03/30 02:49:43;;;;;;;9.45;5.75;;;4.70;59.90;;;;;;6063321;23;20455;-75
2023/03/30 02:52:22;;;;;;;9.73;4.83;;;4.70;61.20;;;;;;6066069;23;20158;-76
2023/03/30 02:54:57;;;;;;;8.10;4.40;;;4.70;61.10;;;;;;6065818;23;20163;-76
2023/03/30 02:57:34;;;;;;;7.43;4.60;;;4.70;60.90;;;;;;6066875;23;20209;-75
2023/03/30 03:00:09;;;;;;;12.95;5.43;;;4.60;60.70;;;;;;6062823;23;20466;-76
2023/03/30 03:02:40;;;;;;;7.60;4.23;;;4.70;60.90;;;;;;6064032;23;20165;-75
2023/03/30 03:05:13;;;;;;;9.03;4.23;;;4.60;60.70;;;;;;6065186;23;20625;-76
2023/03/30 03:07:43;;;;;;;8.17;4.40;;;4.60;60.20;;;;;;6066039;23;20163;-75
2023/03/30 03:10:12;;;;;;;9.43;4.30;;;4.60;59.90;;;;;;6065359;23;20652;-75
2023/03/30 03:12:44;;;;;;;11.73;4.90;;;4.70;59.80;;;;;;6065253;23;20190;-75
2023/03/30 03:15:12;;;;;;;12.47;5.07;;;4.60;59.80;;;;;;6067963;23;20177;-75
2023/03/30 03:17:44;;;;;;;16.97;4.53;;;4.70;59.70;;;;;;6064616;23;20214;-75
2023/03/30 03:20:13;;;;;;;12.03;4.60;;;4.70;59.70;;;;;;6059956;23;20234;-75
2023/03/30 03:22:42;;;;;;;8.73;4.13;;;4.70;59.80;;;;;;6060394;23;20182;-75
2023/03/30 03:25:10;;;;;;;14.23;5.80;;;4.70;59.90;;;;;;6065819;23;20241;-76
2023/03/30 03:27:39;;;;;;;10.60;4.67;;;4.70;60.20;;;;;;6064519;23;20310;-75
2023/03/30 03:30:10;;;;;;;11.43;5.17;;;4.70;60.20;;;;;;6061720;23;20629;-74
2023/03/30 03:32:38;;;;;;;13.87;4.63;;;4.60;60.40;;;;;;6062706;23;20166;-75
2023/03/30 03:35:08;;;;;;;9.20;4.80;;;4.60;60.40;;;;;;6060983;23;20257;-75
2023/03/30 03:37:36;;;;;;;20.07;4.77;;;4.60;60.30;;;;;;6064936;23;20182;-75
2023/03/30 03:40:05;;;;;;;8.87;4.20;;;4.60;60.20;;;;;;6061007;23;20188;-75
2023/03/30 03:42:35;;;;;;;14.83;5.13;;;4.60;60.40;;;;;;6059427;23;20183;-75
2023/03/30 03:45:04;;;;;;;12.47;5.20;;;4.60;60.50;;;;;;6061429;23;20493;-76
2023/03/30 03:47:34;;;;;;;19.27;5.40;;;4.60;60.70;;;;;;6062070;23;20508;-75
2023/03/30 03:50:08;;;;;;;25.77;5.80;;;4.60;60.80;;;;;;6061633;23;20201;-75
2023/03/30 03:52:36;;;;;;;17.37;5.37;;;4.50;60.80;;;;;;6062043;23;20495;-76
2023/03/30 03:55:06;;;;;;;11.07;5.10;;;4.50;60.80;;;;;;6062460;23;20177;-75
2023/03/30 03:57:35;;;;;;;15.60;6.28;;;4.50;60.80;;;;;;6058594;23;20395;-75
2023/03/30 04:00:14;;;;;;;12.47;5.37;;;4.50;61.10;;;;;;6063645;23;20457;-76
2023/03/30 04:02:44;;;;;;;12.17;5.40;;;4.50;61.00;;;;;;6064244;23;20182;-76
2023/03/30 04:05:13;;;;;;;9.00;5.13;;;4.50;60.80;;;;;;6064678;23;20510;-75
2023/03/30 04:07:45;;;;;;;13.33;6.40;;;4.50;60.60;;;;;;6063000;23;20644;-75
2023/03/30 04:10:14;;;;;;;19.17;6.60;;;4.50;60.60;;;;;;6063186;23;20616;-75
2023/03/30 04:12:42;;;;;;;17.57;6.97;;;4.50;60.60;;;;;;6064402;23;20178;-75
2023/03/30 04:15:11;;;;;;;11.17;6.43;;;4.50;60.70;;;;;;6062913;23;20226;-75
2023/03/30 04:17:39;;;;;;;11.23;6.33;;;4.50;61.10;;;;;;6064014;23;20182;-76
2023/03/30 04:20:10;;;;;;;20.47;7.10;;;4.50;60.90;;;;;;6063937;23;20198;-76
2023/03/30 04:22:40;;;;;;;18.90;6.53;;;4.50;61.60;;;;;;6063730;23;20179;-75
2023/03/30 04:25:10;;;;;;;14.23;6.47;;;4.50;60.80;;;;;;6064135;23;20261;-76
2023/03/30 04:27:41;;;;;;;17.97;7.43;;;4.50;60.90;;;;;;6063516;23;20186;-75
2023/03/30 04:30:11;;;;;;;18.90;8.30;;;4.50;60.80;;;;;;6061108;23;20539;-76
2023/03/30 04:32:40;;;;;;;15.80;7.07;;;4.50;60.90;;;;;;6060764;23;20495;-75
2023/03/30 04:35:10;;;;;;;21.87;7.70;;;4.50;60.90;;;;;;6060904;23;20182;-75
2023/03/30 04:37:40;;;;;;;20.07;8.60;;;4.50;60.90;;;;;;6064585;23;20254;-75
2023/03/30 04:40:10;;;;;;;20.10;9.03;;;4.50;61.00;;;;;;6066328;23;20222;-74
2023/03/30 04:42:39;;;;;;;21.13;8.70;;;4.50;60.90;;;;;;6065625;23;20198;-75
2023/03/30 04:45:09;;;;;;;18.97;7.93;;;4.50;60.80;;;;;;6065763;23;20185;-75
2023/03/30 04:47:37;;;;;;;17.67;7.20;;;4.50;61.00;;;;;;6064168;23;20753;-75
2023/03/30 04:50:06;;;;;;;18.50;7.87;;;4.50;61.00;;;;;;6065519;23;20178;-75
2023/03/30 04:52:36;;;;;;;17.67;7.10;;;4.60;61.00;;;;;;6063871;23;20293;-75
2023/03/30 04:55:05;;;;;;;17.57;7.53;;;4.60;60.80;;;;;;6065671;23;20185;-76
2023/03/30 04:57:34;;;;;;;13.93;7.03;;;4.60;60.90;;;;;;6064530;23;20678;-76
2023/03/30 05:00:03;;;;;;;14.93;7.10;;;4.70;61.00;;;;;;6065034;23;20178;-76
2023/03/30 05:02:31;;;;;;;16.53;6.87;;;4.70;60.70;;;;;;6066091;23;20194;-75
2023/03/30 05:04:59;;;;;;;20.40;6.37;;;4.60;59.40;;;;;;6063988;23;20636;-75
2023/03/30 05:07:28;;;;;;;20.53;7.37;;;4.70;59.50;;;;;;6065434;23;20520;-75
2023/03/30 05:09:58;;;;;;;18.40;7.00;;;4.70;59.50;;;;;;6066497;23;20528;-75
2023/03/30 05:12:26;;;;;;;17.83;6.67;;;4.70;59.60;;;;;;6066897;23;20179;-76
2023/03/30 05:14:54;;;;;;;17.37;7.23;;;4.80;59.70;;;;;;6066412;23;20490;-75
2023/03/30 05:17:22;;;;;;;13.80;6.10;;;4.90;59.80;;;;;;6063802;23;20187;-76
2023/03/30 05:19:52;;;;;;;19.07;5.90;;;5.00;59.80;;;;;;6065744;23;20182;-75
2023/03/30 05:22:20;;;;;;;18.93;6.63;;;5.00;59.80;;;;;;6065831;23;20194;-75
2023/03/30 05:24:48;;;;;;;11.40;5.80;;;5.10;59.70;;;;;;6066681;23;20186;-75
2023/03/30 05:27:18;;;;;;;13.90;5.40;;;5.20;59.80;;;;;;6066030;23;20178;-75
2023/03/30 05:29:47;;;;;;;13.60;5.10;;;5.20;59.40;;;;;;6065019;23;20230;-75
2023/03/30 05:32:15;;;;;;;10.27;4.27;;;5.30;59.10;;;;;;6064262;23;20182;-75
2023/03/30 05:34:43;;;;;;;14.77;4.57;;;5.40;58.90;;;;;;6066623;23;20179;-75
2023/03/30 05:37:12;;;;;;;11.63;5.40;;;5.40;58.40;;;;;;6065153;23;20178;-75
2023/03/30 05:39:40;;;;;;;14.10;6.03;;;5.40;57.40;;;;;;6063113;23;20514;-75
2023/03/30 05:42:10;;;;;;;15.07;6.37;;;5.50;57.80;;;;;;6063568;23;20249;-75
2023/03/30 05:44:40;;;;;;;15.03;6.20;;;5.50;57.50;;;;;;6064183;23;20178;-76
2023/03/30 05:47:08;;;;;;;10.67;5.43;;;5.50;57.70;;;;;;6065450;23;20178;-75
2023/03/30 05:49:36;;;;;;;14.07;5.83;;;5.70;58.10;;;;;;6065817;23;20633;-76
2023/03/30 05:52:05;;;;;;;16.97;7.17;;;5.70;58.00;;;;;;6065447;23;20645;-76
2023/03/30 05:54:34;;;;;;;19.17;7.93;;;5.80;58.10;;;;;;6061832;23;20508;-75
2023/03/30 05:57:02;;;;;;;19.23;8.03;;;5.90;58.40;;;;;;6065846;23;20593;-77
2023/03/30 05:59:31;;;;;;;19.13;8.20;;;6.00;58.40;;;;;;6063168;23;20163;-77
2023/03/30 06:02:01;;;;;;;27.10;10.07;;;6.10;58.50;;;;;;6063136;23;20204;-75
2023/03/30 06:04:30;;;;;;;20.07;8.40;;;6.20;58.60;;;;;;6063713;23;20179;-75
2023/03/30 06:06:58;;;;;;;18.73;7.60;;;6.20;58.50;;;;;;6063334;23;20191;-74
2023/03/30 06:09:27;;;;;;;14.33;7.53;;;6.30;58.10;;;;;;6065798;23;20178;-76
2023/03/30 06:11:56;;;;;;;19.50;7.23;;;6.30;58.00;;;;;;6064788;23;20569;-74
2023/03/30 06:14:24;;;;;;;14.30;5.67;;;6.40;58.40;;;;;;6063579;23;20177;-75
2023/03/30 06:16:52;;;;;;;13.70;6.00;;;6.50;58.10;;;;;;6065919;23;20182;-75
2023/03/30 06:19:22;;;;;;;14.13;5.73;;;6.50;56.50;;;;;;6065118;23;20177;-76
2023/03/30 06:21:51;;;;;;;13.17;6.23;;;6.60;55.70;;;;;;6063645;23;20184;-76
2023/03/30 06:24:19;;;;;;;15.83;5.63;;;6.60;55.40;;;;;;6060826;23;20177;-75
2023/03/30 06:26:48;;;;;;;14.50;6.07;;;6.70;56.20;;;;;;6063035;23;20740;-74
2023/03/30 06:29:16;;;;;;;12.37;5.93;;;6.80;56.60;;;;;;6063201;23;20237;-76
2023/03/30 06:31:45;;;;;;;9.57;5.77;;;6.90;56.30;;;;;;6063145;23;20186;-76
2023/03/30 06:34:14;;;;;;;12.60;5.67;;;7.00;56.40;;;;;;6064176;23;20253;-76
2023/03/30 06:36:44;;;;;;;10.63;5.30;;;7.10;56.30;;;;;;6062864;23;20183;-77
2023/03/30 06:39:13;;;;;;;14.47;4.97;;;7.20;56.00;;;;;;6060448;23;20194;-77
2023/03/30 06:41:46;;;;;;;10.50;4.57;;;7.30;55.50;;;;;;6061819;23;20185;-76
2023/03/30 06:44:14;;;;;;;8.73;4.17;;;7.30;53.50;;;;;;6059900;23;20648;-75
2023/03/30 06:46:43;;;;;;;9.03;4.37;;;7.40;53.50;;;;;;6058816;23;20182;-75
2023/03/30 06:49:13;;;;;;;9.67;4.10;;;7.50;54.30;;;;;;6062470;23;20548;-75
2023/03/30 06:51:43;;;;;;;7.07;3.57;;;7.60;53.60;;;;;;6064366;23;20492;-74
2023/03/30 06:54:11;;;;;;;7.27;3.60;;;7.70;53.00;;;;;;6064150;23;20178;-75
2023/03/30 06:56:39;;;;;;;8.93;4.43;;;7.70;52.30;;;;;;6063096;23;20182;-74
2023/03/30 06:59:08;;;;;;;6.83;3.77;;;7.90;52.80;;;;;;6063603;23;20495;-75
2023/03/30 07:01:36;;;;;;;6.20;3.33;;;8.00;52.80;;;;;;6064976;23;20182;-76
2023/03/30 07:04:06;;;;;;;12.20;3.73;;;8.10;52.30;;;;;;6064512;23;20703;-76
2023/03/30 07:06:34;;;;;;;9.07;3.63;;;8.20;52.30;;;;;;6064346;23;20178;-76
2023/03/30 07:09:05;;;;;;;8.73;4.20;;;8.30;51.90;;;;;;6066768;23;20265;-75
2023/03/30 07:11:33;;;;;;;6.77;3.80;;;8.40;52.00;;;;;;6064358;23;20186;-76
2023/03/30 07:14:04;;;;;;;7.77;4.50;;;8.50;51.40;;;;;;6062633;23;20178;-75
2023/03/30 07:16:32;;;;;;;7.63;4.43;;;8.60;51.50;;;;;;6064670;23;20209;-76
2023/03/30 07:19:01;;;;;;;9.90;4.67;;;8.60;51.70;;;;;;6067827;23;20175;-75
2023/03/30 07:21:29;;;;;;;16.63;4.90;;;8.80;52.00;;;;;;6065329;23;20499;-77
2023/03/30 07:24:00;;;;;;;8.63;4.20;;;8.80;52.10;;;;;;6068709;23;20194;-77
2023/03/30 07:26:30;;;;;;;9.37;4.40;;;8.90;50.60;;;;;;6065240;23;20218;-76
2023/03/30 07:28:58;;;;;;;7.87;3.90;;;8.90;50.80;;;;;;6065411;23;20219;-76
2023/03/30 07:31:27;;;;;;;8.97;3.97;;;9.10;51.10;;;;;;6064068;23;20175;-75
2023/03/30 07:33:55;;;;;;;8.57;3.80;;;9.20;51.00;;;;;;6064676;23;20170;-74
2023/03/30 07:36:23;;;;;;;7.40;3.37;;;9.20;50.20;;;;;;6061767;23;20261;-75
2023/03/30 07:38:52;;;;;;;4.70;2.50;;;9.30;50.10;;;;;;6061340;23;20505;-76
2023/03/30 07:41:20;;;;;;;7.10;2.70;;;9.40;49.60;;;;;;6065568;23;20249;-77
2023/03/30 07:43:50;;;;;;;7.80;2.80;;;9.50;49.70;;;;;;6062678;23;20202;-77
2023/03/30 07:46:18;;;;;;;9.30;3.70;;;9.60;49.60;;;;;;6063785;23;20249;-75
2023/03/30 07:48:47;;;;;;;5.77;2.57;;;9.60;47.90;;;;;;6064493;23;20197;-76
2023/03/30 07:51:18;;;;;;;5.93;2.70;;;9.70;47.60;;;;;;6063012;23;20257;-76
2023/03/30 07:53:47;;;;;;;5.70;2.37;;;9.70;47.50;;;;;;6064445;23;20536;-75
2023/03/30 07:56:16;;;;;;;4.33;2.10;;;9.80;47.40;;;;;;6065073;23;20179;-77
2023/03/30 07:58:44;;;;;;;5.43;2.30;;;9.90;47.10;;;;;;6064701;23;20198;-77
2023/03/30 08:01:14;;;;;;;4.57;2.20;;;10.00;46.90;;;;;;6062580;23;20185;-77
2023/03/30 08:03:44;;;;;;;8.63;2.50;;;10.00;46.80;;;;;;6063082;23;20245;-74
2023/03/30 08:06:13;;;;;;;4.03;2.20;;;10.10;46.40;;;;;;6064317;23;20213;-77
2023/03/30 08:08:42;;;;;;;4.80;2.43;;;10.10;46.00;;;;;;6065265;23;20700;-76
2023/03/30 08:11:20;;;;;;;5.17;2.93;;;10.20;46.00;;;;;;6064896;23;20233;-75
2023/03/30 08:16:46;;;;;;;4.47;2.07;;;10.30;45.50;;;;;;6065534;23;20229;-75
2023/03/30 08:19:14;;;;;;;4.20;2.30;;;10.40;44.20;;;;;;6066029;23;20707;-76
2023/03/30 08:21:42;;;;;;;7.07;2.53;;;10.40;45.10;;;;;;6063223;23;20707;-76
2023/03/30 08:24:11;;;;;;;4.93;2.20;;;10.50;45.40;;;;;;6067472;23;20190;-77
2023/03/30 08:30:15;;;;;;;11.93;2.63;;;10.60;45.10;;;;;;5956003;23;20185;-73
2023/03/30 08:32:46;;;;;;;5.77;2.60;;;10.70;44.40;;;;;;6064529;23;20581;-73
2023/03/30 08:35:15;;;;;;;4.23;2.13;;;10.70;44.50;;;;;;6061939;23;20607;-73
2023/03/30 08:37:44;;;;;;;4.23;2.10;;;10.80;44.70;;;;;;6065950;23;20182;-77
2023/03/30 08:40:12;;;;;;;5.53;2.23;;;10.90;44.50;;;;;;6063824;23;20624;-75
2023/03/30 08:43:21;;;;;;;4.90;2.43;;;10.90;43.40;;;;;;6064844;23;20543;-77
2023/03/30 08:45:50;;;;;;;5.50;2.57;;;10.90;43.20;;;;;;6063594;23;20165;-75
2023/03/30 08:48:24;;;;;;;4.87;2.10;;;11.00;43.20;;;;;;6063531;23;20179;-77
2023/03/30 08:50:57;;;;;;;5.65;2.50;;;11.00;42.80;;;;;;6064325;23;20470;-75
2023/03/30 08:53:28;;;;;;;4.07;2.20;;;11.10;43.00;;;;;;6065483;23;20226;-79
2023/03/30 08:56:01;;;;;;;7.47;2.80;;;11.20;43.10;;;;;;6063618;23;20206;-79
2023/03/30 08:58:47;;;;;;;5.27;2.20;;;11.20;41.50;;;;;;6065069;23;20257;-77
2023/03/30 09:01:23;;;;;;;3.80;2.10;;;11.30;42.50;;;;;;6064961;23;20162;-79
2023/03/30 09:04:17;;;;;;;4.10;2.33;;;11.30;42.60;;;;;;6064604;23;20178;-80
2023/03/30 09:06:50;;;;;;;5.17;2.30;;;11.40;42.80;;;;;;6064487;23;20179;-79
2023/03/30 09:09:20;;;;;;;4.93;2.13;;;11.40;41.80;;;;;;6059970;23;20182;-78
2023/03/30 09:11:52;;;;;;;4.40;2.30;;;11.50;42.00;;;;;;6062363;23;20183;-78
2023/03/30 09:14:31;;;;;;;4.50;1.97;;;11.60;42.30;;;;;;6065761;23;20210;-77
2023/03/30 09:17:07;;;;;;;4.37;2.07;;;11.70;42.10;;;;;;6059766;23;20410;-78
2023/03/30 09:19:48;;;;;;;4.27;2.40;;;11.80;42.40;;;;;;6065201;23;20168;-77
2023/03/30 09:22:19;;;;;;;2.67;1.83;;;11.80;42.30;;;;;;6063705;23;20680;-77
2023/03/30 09:24:50;;;;;;;3.37;1.87;;;11.80;40.70;;;;;;6063043;23;20189;-78
2023/03/30 09:27:25;;;;;;;3.90;1.90;;;11.90;41.40;;;;;;6063769;23;20241;-78
2023/03/30 09:29:57;;;;;;;4.67;1.73;;;12.00;43.20;;;;;;6061470;23;20158;-77
2023/03/30 09:32:41;;;;;;;4.50;2.00;;;12.10;41.70;;;;;;6064384;23;20162;-78
2023/03/30 09:35:20;;;;;;;4.57;2.03;;;12.20;42.00;;;;;;6064308;23;20154;-78
2023/03/30 09:37:48;;;;;;;5.13;2.00;;;12.30;42.10;;;;;;6063273;23;20167;-79
2023/03/30 09:40:31;;;;;;;5.83;1.93;;;12.30;39.80;;;;;;6064128;23;20182;-76
2023/03/30 09:43:10;;;;;;;3.83;2.00;;;12.30;38.90;;;;;;6062720;23;20167;-80
2023/03/30 09:45:41;;;;;;;4.90;1.90;;;12.40;39.90;;;;;;6059458;23;20186;-76
2023/03/30 09:48:09;;;;;;;4.43;2.17;;;12.50;41.10;;;;;;6065146;23;20159;-76
2023/03/30 09:50:41;;;;;;;3.90;2.10;;;12.50;40.70;;;;;;6061795;23;20178;-76
2023/03/30 09:53:21;;;;;;;6.57;2.00;;;12.50;39.50;;;;;;6065707;23;20510;-75
2023/03/30 09:55:59;;;;;;;4.07;1.80;;;12.60;40.20;;;;;;6067102;23;20162;-76
2023/03/30 09:58:29;;;;;;;4.27;2.00;;;12.60;39.70;;;;;;6063665;23;20202;-75
2023/03/30 10:01:03;;;;;;;3.53;1.80;;;12.60;38.80;;;;;;6065007;23;20246;-76
2023/03/30 10:03:32;;;;;;;4.73;2.40;;;12.60;39.50;;;;;;6063356;23;20511;-76
2023/03/30 10:06:06;;;;;;;6.37;1.80;;;12.60;39.30;;;;;;6066939;23;20672;-76
2023/03/30 10:08:41;;;;;;;3.80;1.70;;;12.70;39.70;;;;;;6065403;23;20595;-76
2023/03/30 10:11:10;;;;;;;4.70;2.00;;;12.70;39.70;;;;;;6064802;23;20170;-78
2023/03/30 10:13:42;;;;;;;4.03;2.20;;;12.70;38.60;;;;;;6064688;23;20179;-78
2023/03/30 10:16:20;;;;;;;6.07;1.70;;;12.80;39.10;;;;;;6060860;23;20159;-76
2023/03/30 10:18:53;;;;;;;3.00;1.60;;;12.80;39.00;;;;;;6063835;23;20162;-75
2023/03/30 10:21:26;;;;;;;4.77;1.80;;;12.90;38.60;;;;;;6064957;23;20170;-75
2023/03/30 10:24:06;;;;;;;3.77;1.87;;;12.90;38.40;;;;;;6065521;23;20169;-77
2023/03/30 10:26:37;;;;;;;3.00;1.50;;;13.00;38.80;;;;;;6063284;23;20249;-76
2023/03/30 10:29:09;;;;;;;5.10;2.10;;;13.00;38.90;;;;;;6064436;23;20185;-76
2023/03/30 10:31:42;;;;;;;5.87;1.80;;;13.00;38.60;;;;;;6065494;23;20221;-77
2023/03/30 10:34:16;;;;;;;6.07;2.00;;;13.00;38.20;;;;;;6062013;23;20163;-75
2023/03/30 10:36:48;;;;;;;5.67;2.30;;;13.00;37.80;;;;;;6066010;23;20166;-77
2023/03/30 10:39:24;;;;;;;6.73;2.50;;;13.10;38.20;;;;;;6064305;23;20158;-75
2023/03/30 10:41:54;;;;;;;5.13;1.77;;;13.20;38.20;;;;;;6062968;23;20163;-77
2023/03/30 10:44:30;;;;;;;6.43;2.23;;;13.20;38.20;;;;;;6060390;23;20167;-75
2023/03/30 10:47:11;;;;;;;4.63;2.07;;;13.20;38.60;;;;;;6064120;23;20219;-76
2023/03/30 10:49:50;;;;;;;4.90;2.30;;;13.30;38.10;;;;;;6064930;23;20163;-78
2023/03/30 10:52:27;;;;;;;3.87;2.10;;;13.30;38.50;;;;;;6064841;23;20166;-77
2023/03/30 10:55:02;;;;;;;4.87;2.27;;;13.40;38.40;;;;;;6065781;23;20162;-76
2023/03/30 10:57:41;;;;;;;3.80;2.10;;;13.40;38.10;;;;;;6064739;23;20198;-78
2023/03/30 11:00:31;;;;;;;8.83;2.00;;;13.40;37.90;;;;;;6068266;23;20174;-78
2023/03/30 11:03:07;;;;;;;2.83;1.63;;;13.50;37.90;;;;;;6067099;23;20170;-76
2023/03/30 11:05:40;;;;;;;4.27;1.80;;;13.60;37.30;;;;;;6064481;23;20694;-77
2023/03/30 11:08:15;;;;;;;4.03;2.17;;;13.70;38.40;;;;;;6065413;23;20211;-78
2023/03/30 11:10:48;;;;;;;6.20;1.90;;;13.80;37.80;;;;;;6067228;23;20480;-77
2023/03/30 11:13:20;;;;;;;3.10;1.47;;;13.90;38.20;;;;;;6068151;23;20230;-76
2023/03/30 11:15:52;;;;;;;3.50;1.57;;;14.00;38.00;;;;;;6067393;23;20159;-76
2023/03/30 11:18:35;;;;;;;4.97;1.67;;;14.10;37.80;;;;;;6067325;23;20534;-76
2023/03/30 11:21:11;;;;;;;2.83;1.83;;;14.30;37.70;;;;;;6068858;23;20182;-77
2023/03/30 11:23:53;;;;;;;4.00;1.83;;;14.30;35.70;;;;;;6065424;23;20669;-77
2023/03/30 11:26:29;;;;;;;5.07;1.70;;;14.40;36.10;;;;;;6065114;23;20183;-76
2023/03/30 11:29:25;;;;;;;3.73;1.53;;;14.40;35.10;;;;;;6061775;23;20169;-78
2023/03/30 11:31:59;;;;;;;4.00;1.53;;;14.50;35.80;;;;;;6067420;23;20535;-76
2023/03/30 11:34:35;;;;;;;2.70;1.50;;;14.60;35.20;;;;;;6066756;23;20162;-77
2023/03/30 11:37:12;;;;;;;4.00;1.30;;;14.60;35.50;;;;;;6065911;23;20162;-78
2023/03/30 11:39:51;;;;;;;2.67;1.50;;;14.60;35.50;;;;;;6065423;23;20205;-78
2023/03/30 11:42:25;;;;;;;2.70;1.50;;;14.70;36.60;;;;;;6066468;23;20209;-77
2023/03/30 11:44:53;;;;;;;2.87;1.60;;;14.80;36.10;;;;;;6064170;23;20227;-77
2023/03/30 11:47:41;;;;;;;2.67;1.63;;;14.80;34.70;;;;;;6065537;23;20253;-78
2023/03/30 11:50:29;;;;;;;4.50;1.70;;;14.90;34.80;;;;;;6066677;23;20605;-77
2023/03/30 11:53:17;;;;;;;3.60;1.97;;;14.90;34.90;;;;;;6067002;23;20174;-77
2023/03/30 11:56:06;;;;;;;2.57;1.50;;;15.00;34.60;;;;;;6064481;23;20171;-77
2023/03/30 11:58:37;;;;;;;2.57;1.40;;;15.10;35.40;;;;;;6066647;23;20510;-76
2023/03/30 12:01:26;;;;;;;6.10;1.53;;;15.20;35.70;;;;;;6066938;23;20179;-77
2023/03/30 12:04:08;;;;;;;4.43;1.90;;;15.30;35.30;;;;;;6065431;23;20235;-75
2023/03/30 12:06:40;;;;;;;2.67;1.37;;;15.30;35.60;;;;;;6064990;23;20183;-75
2023/03/30 12:09:34;;;;;;;3.30;1.27;;;15.40;34.70;;;;;;6066115;23;20242;-77
2023/03/30 12:12:10;;;;;;;3.87;1.87;;;15.50;34.00;;;;;;6056897;23;20209;-77
2023/03/30 12:14:47;;;;;;;4.17;1.80;;;15.50;33.70;;;;;;6064647;23;20237;-78
2023/03/30 12:17:52;;;;;;;3.43;1.50;;;15.50;33.70;;;;;;6062370;23;20162;-80
2023/03/30 12:20:34;;;;;;;3.20;1.73;;;15.70;34.00;;;;;;6068348;23;20214;-77
2023/03/30 12:23:13;;;;;;;6.43;1.67;;;15.80;34.00;;;;;;6066831;23;20613;-77
2023/03/30 12:26:02;;;;;;;3.03;1.70;;;16.00;33.80;;;;;;6067700;23;20185;-78
2023/03/30 12:28:44;;;;;;;3.83;1.40;;;16.00;33.60;;;;;;6065890;23;20620;-79
2023/03/30 12:32:07;;;;;;;3.37;1.50;;;16.00;33.50;;;;;;6067792;23;20276;-77
2023/03/30 12:34:43;;;;;;;5.70;1.77;;;16.10;33.50;;;;;;6067484;23;20176;-77
2023/03/30 12:37:21;;;;;;;3.33;1.57;;;16.10;33.30;;;;;;6067314;23;20162;-77
2023/03/30 12:39:56;;;;;;;6.30;1.60;;;16.20;33.30;;;;;;6019182;23;20228;-78
2023/03/30 12:42:33;;;;;;;4.30;1.60;;;16.20;32.40;;;;;;6069275;23;20166;-76
2023/03/30 12:45:21;;;;;;;2.93;1.57;;;16.20;32.70;;;;;;6065969;23;20495;-76
2023/03/30 12:48:22;;;;;;;3.80;1.63;;;16.30;31.80;;;;;;6068277;23;20161;-80
2023/03/30 12:51:05;;;;;;;6.00;1.37;;;16.30;32.20;;;;;;6067514;23;20218;-76
2023/03/30 12:54:31;;;;;;;3.20;1.73;;;16.40;32.40;;;;;;6067800;23;20609;-77
2023/03/30 13:00:25;;;;;;;2.87;1.50;;;16.60;32.10;;;;;;6076737;23;20578;-75
2023/03/30 13:03:38;;;;;;;6.10;1.33;;;16.70;31.90;;;;;;6091120;23;20694;-73
2023/03/30 13:06:14;;;;;;;7.93;1.97;;;16.80;32.40;;;;;;6085098;23;20646;-75
2023/03/30 13:08:42;;;;;;;1.97;1.30;;;17.00;32.10;;;;;;6093879;23;20159;-73
2023/03/30 13:11:14;;;;;;;3.83;1.07;;;17.10;31.10;;;;;;6094252;23;20653;-74
2023/03/30 13:13:50;;;;;;;3.13;1.50;;;17.20;30.90;;;;;;6092252;23;20190;-75
2023/03/30 13:17:05;;;;;;;2.65;1.50;;;17.40;31.70;;;;;;6092543;23;20847;-75
2023/03/30 13:20:04;;;;;;;2.28;1.52;;;17.60;31.00;;;;;;6094434;23;20225;-75
2023/03/30 13:23:02;;;;;;;4.32;1.60;;;17.70;30.00;;;;;;6093629;23;20530;-75
2023/03/30 13:25:39;;;;;;;9.52;1.45;;;18.00;30.00;;;;;;6092980;23;20162;-74
2023/03/30 13:28:50;;;;;;;6.25;1.63;;;18.40;30.40;;;;;;6088982;23;20225;-75
2023/03/30 13:31:44;;;;;;;3.15;1.42;;;18.50;28.80;;;;;;6056974;23;20666;-74
2023/03/30 13:34:29;;;;;;;4.50;1.55;;;18.80;29.00;;;;;;6092977;23;20536;-74